createdAt,value
2023-01-11T00:00:47.674Z,1.00
2023-01-11T00:01:47.639Z,1.30
2023-01-11T00:02:47.601Z,1.30
2023-01-11T00:03:47.525Z,2.00
2023-01-11T00:04:47.556Z,1.40
2023-01-11T00:05:47.434Z,1.10
2023-01-11T00:06:47.467Z,1.20
2023-01-11T00:07:47.340Z,1.30
2023-01-11T00:08:47.310Z,1.30
2023-01-11T00:09:47.257Z,1.20
2023-01-11T00:10:47.209Z,1.40
2023-01-11T00:11:47.170Z,1.30
2023-01-11T00:12:47.114Z,1.50
2023-01-11T00:13:47.075Z,1.00
2023-01-11T00:14:47.022Z,1.20
2023-01-11T00:15:47.086Z,1.00
2023-01-11T00:16:46.936Z,1.90
2023-01-11T00:17:46.894Z,1.20
2023-01-11T00:18:46.865Z,1.60
2023-01-11T00:19:46.783Z,0.70
2023-01-11T00:20:46.738Z,1.20
2023-01-11T00:21:46.706Z,0.90
2023-01-11T00:22:46.651Z,1.40
2023-01-11T00:23:46.616Z,1.80
2023-01-11T00:24:46.573Z,0.90
2023-01-11T00:25:46.517Z,1.10
2023-01-11T00:26:46.470Z,1.20
2023-01-11T00:27:46.410Z,1.50
2023-01-11T00:28:46.369Z,1.10
2023-01-11T00:29:46.327Z,1.40
2023-01-11T00:30:46.287Z,0.80
2023-01-11T00:31:46.233Z,1.20
2023-01-11T00:32:46.188Z,0.90
2023-01-11T00:33:46.140Z,1.00
2023-01-11T00:34:46.125Z,0.70
2023-01-11T00:35:46.043Z,0.90
2023-01-11T00:36:46.001Z,1.20
2023-01-11T00:37:45.965Z,0.70
2023-01-11T00:38:45.912Z,1.60
2023-01-11T00:39:45.862Z,1.70
2023-01-11T00:40:45.821Z,1.00
2023-01-11T00:41:45.768Z,1.20
2023-01-11T00:42:45.727Z,1.40
2023-01-11T00:43:45.676Z,2.30
2023-01-11T00:44:45.642Z,1.20
2023-01-11T00:45:45.613Z,1.30
2023-01-11T00:46:45.554Z,1.70
2023-01-11T00:47:45.505Z,0.70
2023-01-11T00:48:45.440Z,1.20
2023-01-11T00:49:45.403Z,0.90
2023-01-11T00:50:45.376Z,1.00
2023-01-11T00:51:45.313Z,1.10
2023-01-11T00:52:45.267Z,1.00
2023-01-11T00:53:45.219Z,1.20
2023-01-11T00:54:45.177Z,1.00
2023-01-11T00:55:45.127Z,1.20
2023-01-11T00:56:45.072Z,1.20
2023-01-11T00:57:45.030Z,1.60
2023-01-11T00:58:44.978Z,0.90
2023-01-11T00:59:44.936Z,1.10
2023-01-11T01:00:44.888Z,1.20
2023-01-11T01:01:44.932Z,0.80
2023-01-11T01:02:44.901Z,0.90
2023-01-11T01:03:44.741Z,0.90
2023-01-11T01:04:44.702Z,0.80
2023-01-11T01:05:44.656Z,1.10
2023-01-11T01:06:44.679Z,0.80
2023-01-11T01:07:44.553Z,0.90
2023-01-11T01:08:44.522Z,1.30
2023-01-11T01:09:44.467Z,1.10
2023-01-11T01:10:44.430Z,1.10
2023-01-11T01:11:44.377Z,0.80
2023-01-11T01:12:44.334Z,0.90
2023-01-11T01:13:44.299Z,0.90
2023-01-11T01:14:44.233Z,1.90
2023-01-11T01:15:44.202Z,1.80
2023-01-11T01:16:44.140Z,0.80
2023-01-11T01:17:44.127Z,1.10
2023-01-11T01:18:44.082Z,1.30
2023-01-11T01:19:44.003Z,1.10
2023-01-11T01:20:43.957Z,1.00
2023-01-11T01:21:43.908Z,0.70
2023-01-11T01:22:43.892Z,0.70
2023-01-11T01:23:43.834Z,0.80
2023-01-11T01:24:43.775Z,0.80
2023-01-11T01:25:43.721Z,0.80
2023-01-11T01:26:43.685Z,0.80
2023-01-11T01:27:43.670Z,0.80
2023-01-11T01:28:43.584Z,0.90
2023-01-11T01:29:43.537Z,0.70
2023-01-11T01:30:43.493Z,0.90
2023-01-11T01:31:43.458Z,0.60
2023-01-11T01:32:43.433Z,1.00
2023-01-11T01:33:43.401Z,1.00
2023-01-11T01:34:43.385Z,0.60
2023-01-11T01:35:43.342Z,1.20
2023-01-11T01:36:43.215Z,1.10
2023-01-11T01:37:43.175Z,0.90
2023-01-11T01:38:43.158Z,1.30
2023-01-11T01:39:43.072Z,0.70
2023-01-11T01:40:43.049Z,0.80
2023-01-11T01:41:42.996Z,0.60
2023-01-11T01:42:42.945Z,1.50
2023-01-11T01:43:43.130Z,0.90
2023-01-11T01:44:42.851Z,1.10
2023-01-11T01:45:42.799Z,0.80
2023-01-11T01:46:42.796Z,0.80
2023-01-11T01:47:42.714Z,0.70
2023-01-11T01:48:42.670Z,0.60
2023-01-11T01:49:42.629Z,1.20
2023-01-11T01:50:42.576Z,1.50
2023-01-11T01:51:42.533Z,1.60
2023-01-11T01:52:42.478Z,1.10
2023-01-11T01:53:42.432Z,0.50
2023-01-11T01:54:42.425Z,0.60
2023-01-11T01:55:42.337Z,0.60
2023-01-11T20:04:32.653Z,6.80
2023-01-11T20:05:32.680Z,6.20
2023-01-11T20:06:32.533Z,6.80
2023-01-11T20:07:32.476Z,10.00
2023-01-11T20:08:32.424Z,9.10
2023-01-11T20:09:32.382Z,8.10
2023-01-11T20:10:32.325Z,10.20
2023-01-11T20:11:32.275Z,7.80
2023-01-11T20:12:32.226Z,7.40
2023-01-11T20:13:32.178Z,6.40
2023-01-11T20:14:32.129Z,10.70
2023-01-11T20:15:32.201Z,6.60
2023-01-11T20:16:32.038Z,7.90
2023-01-11T20:17:31.989Z,5.80
2023-01-11T20:18:31.938Z,8.70
2023-01-11T20:19:31.894Z,7.80
2023-01-11T20:20:31.867Z,9.40
2023-01-11T20:21:31.804Z,8.90
2023-01-11T20:22:31.757Z,6.00
2023-01-11T20:23:31.707Z,8.40
2023-01-11T20:24:31.656Z,7.60
2023-01-11T20:25:31.613Z,9.10
2023-01-11T20:26:31.566Z,10.90
2023-01-11T20:27:31.521Z,8.80
2023-01-11T20:28:31.475Z,9.90
2023-01-11T20:29:31.427Z,10.80
2023-01-11T20:30:31.390Z,8.40
2023-01-11T20:31:31.403Z,8.00
2023-01-11T20:32:41.354Z,6.10
2023-01-11T20:33:31.245Z,7.10
2023-01-11T20:34:31.198Z,8.80
2023-01-11T20:35:31.157Z,8.60
2023-01-11T20:36:31.186Z,8.20
2023-01-11T20:37:31.065Z,10.20
2023-01-11T20:38:31.015Z,7.90
2023-01-11T20:39:30.969Z,9.60
2023-01-11T20:40:30.951Z,9.80
2023-01-11T20:41:30.896Z,8.80
2023-01-11T20:42:30.837Z,10.90
2023-01-11T20:43:30.798Z,9.00
2023-01-11T20:44:30.764Z,8.80
2023-01-11T20:45:30.758Z,11.70
2023-01-11T20:46:30.702Z,8.90
2023-01-11T20:47:30.608Z,7.10
2023-01-11T20:48:30.566Z,10.30
2023-01-11T20:49:30.545Z,7.60
2023-01-11T20:50:30.485Z,9.90
2023-01-11T20:51:30.428Z,8.10
2023-01-11T20:52:30.553Z,9.40
2023-01-11T20:53:30.340Z,8.70
2023-01-11T20:54:30.289Z,7.40
2023-01-11T20:55:30.245Z,10.00
2023-01-11T20:56:30.200Z,9.90
2023-01-11T20:57:30.156Z,7.00
2023-01-11T20:58:30.107Z,7.00
2023-01-11T20:59:30.067Z,8.60
2023-01-11T21:00:30.034Z,9.00
2023-01-11T21:01:30.020Z,6.30
2023-01-11T21:02:29.983Z,6.00
2023-01-11T21:03:29.884Z,6.70
2023-01-11T21:04:29.843Z,8.00
2023-01-11T21:05:29.793Z,7.30
2023-01-11T21:06:29.747Z,7.10
2023-01-11T21:07:29.706Z,8.30
2023-01-11T21:08:29.680Z,9.30
2023-01-11T21:09:29.635Z,7.00
2023-01-11T21:10:29.575Z,7.00
2023-01-11T21:11:29.522Z,9.20
2023-01-11T21:12:29.481Z,9.00
2023-01-11T21:13:29.432Z,5.80
2023-01-11T21:14:29.388Z,10.00
2023-01-11T21:15:29.350Z,8.10
2023-01-11T21:16:29.304Z,8.70
2023-01-11T21:17:29.252Z,11.20
2023-01-11T21:18:29.210Z,6.40
2023-01-11T21:19:29.166Z,9.30
2023-01-11T21:20:29.120Z,7.40
2023-01-11T21:21:29.077Z,6.90
2023-01-11T21:22:29.026Z,7.70
2023-01-11T21:23:28.993Z,9.80
2023-01-11T21:24:28.957Z,9.80
2023-01-11T21:25:28.911Z,7.70
2023-01-11T21:26:28.852Z,8.70
2023-01-11T21:27:28.809Z,9.60
2023-01-11T21:28:28.759Z,8.20
2023-01-11T21:29:28.722Z,7.40
2023-01-11T21:30:28.689Z,8.40
2023-01-11T21:31:28.679Z,9.60
2023-01-11T21:32:28.600Z,9.60
2023-01-11T21:33:28.575Z,7.50
2023-01-11T21:34:28.485Z,9.30
2023-01-11T21:35:28.448Z,9.70
2023-01-11T21:36:28.393Z,7.20
2023-01-11T21:37:28.354Z,9.00
2023-01-11T21:38:28.307Z,10.10
2023-01-11T21:39:28.259Z,8.00
2023-01-11T21:40:28.235Z,9.10
